sensor_id;sensor_type;location;lat;lon;timestamp;pressure;altitude;pressure_sealevel;temperature
78859;BMP280;68210;52.032;4.634;2023-05-07T00:00:29;101522.97;;;14.92
78859;BMP280;68210;52.032;4.634;2023-05-07T00:02:30;101519.41;;;14.92
78859;BMP280;68210;52.032;4.634;2023-05-07T00:04:30;101517.28;;;15.01
78859;BMP280;68210;52.032;4.634;2023-05-07T00:06:36;101523.03;;;15.15
78859;BMP280;68210;52.032;4.634;2023-05-07T00:08:37;101520.00;;;15.20
78859;BMP280;68210;52.032;4.634;2023-05-07T00:10:37;101527.75;;;15.18
78859;BMP280;68210;52.032;4.634;2023-05-07T00:12:38;101528.91;;;14.98
78859;BMP280;68210;52.032;4.634;2023-05-07T00:14:38;101526.09;;;15.13
78859;BMP280;68210;52.032;4.634;2023-05-07T00:16:39;101524.72;;;15.22
78859;BMP280;68210;52.032;4.634;2023-05-07T00:18:39;101526.44;;;15.30
78859;BMP280;68210;52.032;4.634;2023-05-07T00:20:40;101537.47;;;15.37
78859;BMP280;68210;52.032;4.634;2023-05-07T00:22:40;101528.59;;;15.21
78859;BMP280;68210;52.032;4.634;2023-05-07T00:24:40;101534.06;;;15.21
78859;BMP280;68210;52.032;4.634;2023-05-07T00:26:41;101527.81;;;15.02
78859;BMP280;68210;52.032;4.634;2023-05-07T00:28:41;101526.53;;;14.96
78859;BMP280;68210;52.032;4.634;2023-05-07T00:30:41;101520.72;;;14.98
78859;BMP280;68210;52.032;4.634;2023-05-07T00:32:42;101521.13;;;15.00
78859;BMP280;68210;52.032;4.634;2023-05-07T00:34:45;101514.16;;;15.02
78859;BMP280;68210;52.032;4.634;2023-05-07T00:36:45;101510.94;;;15.16
78859;BMP280;68210;52.032;4.634;2023-05-07T00:38:46;101512.78;;;15.30
78859;BMP280;68210;52.032;4.634;2023-05-07T00:40:46;101517.81;;;15.28
78859;BMP280;68210;52.032;4.634;2023-05-07T00:42:46;101512.94;;;15.19
78859;BMP280;68210;52.032;4.634;2023-05-07T00:44:49;101514.06;;;15.36
78859;BMP280;68210;52.032;4.634;2023-05-07T00:46:50;101516.09;;;15.43
78859;BMP280;68210;52.032;4.634;2023-05-07T00:48:51;101516.25;;;15.50
78859;BMP280;68210;52.032;4.634;2023-05-07T00:50:51;101514.88;;;15.40
78859;BMP280;68210;52.032;4.634;2023-05-07T00:52:52;101513.06;;;15.25
78859;BMP280;68210;52.032;4.634;2023-05-07T00:54:53;101509.03;;;15.38
78859;BMP280;68210;52.032;4.634;2023-05-07T00:56:54;101505.31;;;15.27
78859;BMP280;68210;52.032;4.634;2023-05-07T00:58:55;101511.44;;;15.02
78859;BMP280;68210;52.032;4.634;2023-05-07T01:00:55;101512.94;;;15.19
78859;BMP280;68210;52.032;4.634;2023-05-07T01:02:56;101502.03;;;15.41
78859;BMP280;68210;52.032;4.634;2023-05-07T01:04:56;101507.84;;;15.39
78859;BMP280;68210;52.032;4.634;2023-05-07T01:06:57;101511.03;;;15.41
78859;BMP280;68210;52.032;4.634;2023-05-07T01:08:59;101512.00;;;15.52
78859;BMP280;68210;52.032;4.634;2023-05-07T01:11:02;101510.38;;;15.51
78859;BMP280;68210;52.032;4.634;2023-05-07T01:13:02;101500.75;;;15.35
78859;BMP280;68210;52.032;4.634;2023-05-07T01:15:05;101504.00;;;15.21
78859;BMP280;68210;52.032;4.634;2023-05-07T01:17:07;101499.47;;;15.29
78859;BMP280;68210;52.032;4.634;2023-05-07T01:19:08;101501.41;;;15.28
78859;BMP280;68210;52.032;4.634;2023-05-07T01:21:11;101494.19;;;15.17
78859;BMP280;68210;52.032;4.634;2023-05-07T01:23:11;101495.81;;;15.21
78859;BMP280;68210;52.032;4.634;2023-05-07T01:25:12;101503.97;;;15.40
78859;BMP280;68210;52.032;4.634;2023-05-07T01:27:13;101496.06;;;15.35
78859;BMP280;68210;52.032;4.634;2023-05-07T01:29:14;101499.22;;;15.37
78859;BMP280;68210;52.032;4.634;2023-05-07T01:31:14;101491.41;;;15.36
78859;BMP280;68210;52.032;4.634;2023-05-07T01:33:19;101496.75;;;15.29
78859;BMP280;68210;52.032;4.634;2023-05-07T01:35:25;101498.00;;;15.35
78859;BMP280;68210;52.032;4.634;2023-05-07T01:37:26;101493.47;;;15.20
78859;BMP280;68210;52.032;4.634;2023-05-07T01:39:29;101489.03;;;15.34
78859;BMP280;68210;52.032;4.634;2023-05-07T01:41:30;101492.78;;;15.26
78859;BMP280;68210;52.032;4.634;2023-05-07T01:43:30;101495.94;;;15.28
78859;BMP280;68210;52.032;4.634;2023-05-07T01:45:31;101489.81;;;15.13
78859;BMP280;68210;52.032;4.634;2023-05-07T01:47:32;101485.50;;;15.12
78859;BMP280;68210;52.032;4.634;2023-05-07T01:49:33;101491.69;;;15.09
78859;BMP280;68210;52.032;4.634;2023-05-07T01:51:34;101484.09;;;15.21
78859;BMP280;68210;52.032;4.634;2023-05-07T01:53:36;101492.94;;;15.33
78859;BMP280;68210;52.032;4.634;2023-05-07T01:55:37;101490.78;;;15.23
78859;BMP280;68210;52.032;4.634;2023-05-07T01:57:37;101495.53;;;15.08
78859;BMP280;68210;52.032;4.634;2023-05-07T01:59:37;101485.31;;;15.23
78859;BMP280;68210;52.032;4.634;2023-05-07T02:01:38;101491.38;;;15.14
78859;BMP280;68210;52.032;4.634;2023-05-07T02:03:38;101488.09;;;15.27
78859;BMP280;68210;52.032;4.634;2023-05-07T02:05:38;101486.50;;;15.22
78859;BMP280;68210;52.032;4.634;2023-05-07T02:07:39;101488.28;;;15.37
78859;BMP280;68210;52.032;4.634;2023-05-07T02:09:39;101489.28;;;15.07
78859;BMP280;68210;52.032;4.634;2023-05-07T02:11:39;101485.78;;;15.07
78859;BMP280;68210;52.032;4.634;2023-05-07T02:13:41;101487.81;;;15.10
78859;BMP280;68210;52.032;4.634;2023-05-07T02:15:41;101489.97;;;15.01
78859;BMP280;68210;52.032;4.634;2023-05-07T02:18:01;101493.28;;;15.10
78859;BMP280;68210;52.032;4.634;2023-05-07T02:20:02;101486.06;;;15.02
78859;BMP280;68210;52.032;4.634;2023-05-07T02:22:03;101490.06;;;15.08
78859;BMP280;68210;52.032;4.634;2023-05-07T02:24:04;101493.97;;;15.07
78859;BMP280;68210;52.032;4.634;2023-05-07T02:26:05;101494.97;;;15.18
78859;BMP280;68210;52.032;4.634;2023-05-07T02:28:05;101490.31;;;15.18
78859;BMP280;68210;52.032;4.634;2023-05-07T02:30:06;101485.75;;;15.25
78859;BMP280;68210;52.032;4.634;2023-05-07T02:32:06;101494.09;;;15.14
78859;BMP280;68210;52.032;4.634;2023-05-07T02:34:07;101492.75;;;15.04
78859;BMP280;68210;52.032;4.634;2023-05-07T02:36:09;101498.50;;;15.18
78859;BMP280;68210;52.032;4.634;2023-05-07T02:38:10;101489.16;;;15.00
78859;BMP280;68210;52.032;4.634;2023-05-07T02:40:11;101498.66;;;15.06
78859;BMP280;68210;52.032;4.634;2023-05-07T02:42:11;101501.16;;;15.15
78859;BMP280;68210;52.032;4.634;2023-05-07T02:44:12;101498.38;;;15.33
78859;BMP280;68210;52.032;4.634;2023-05-07T02:46:12;101496.97;;;15.20
78859;BMP280;68210;52.032;4.634;2023-05-07T02:48:12;101498.69;;;15.28
78859;BMP280;68210;52.032;4.634;2023-05-07T02:50:14;101498.63;;;15.25
78859;BMP280;68210;52.032;4.634;2023-05-07T02:52:15;101490.59;;;15.35
78859;BMP280;68210;52.032;4.634;2023-05-07T02:54:15;101491.94;;;15.22
78859;BMP280;68210;52.032;4.634;2023-05-07T02:56:16;101494.31;;;15.24
78859;BMP280;68210;52.032;4.634;2023-05-07T02:58:16;101494.13;;;15.36
78859;BMP280;68210;52.032;4.634;2023-05-07T03:00:18;101501.53;;;15.35
78859;BMP280;68210;52.032;4.634;2023-05-07T03:02:19;101500.81;;;15.38
78859;BMP280;68210;52.032;4.634;2023-05-07T03:04:20;101488.72;;;15.17
78859;BMP280;68210;52.032;4.634;2023-05-07T03:06:20;101486.59;;;15.29
78859;BMP280;68210;52.032;4.634;2023-05-07T03:08:21;101490.38;;;15.03
78859;BMP280;68210;52.032;4.634;2023-05-07T03:10:21;101491.69;;;15.09
78859;BMP280;68210;52.032;4.634;2023-05-07T03:12:22;101489.53;;;14.99
78859;BMP280;68210;52.032;4.634;2023-05-07T03:14:22;101488.38;;;15.00
78859;BMP280;68210;52.032;4.634;2023-05-07T03:16:22;101489.38;;;15.11
78859;BMP280;68210;52.032;4.634;2023-05-07T03:18:23;101489.53;;;14.99
78859;BMP280;68210;52.032;4.634;2023-05-07T03:20:23;101492.81;;;15.08
78859;BMP280;68210;52.032;4.634;2023-05-07T03:22:23;101488.78;;;15.20
78859;BMP280;68210;52.032;4.634;2023-05-07T03:24:24;101492.97;;;15.15
78859;BMP280;68210;52.032;4.634;2023-05-07T03:26:24;101491.94;;;15.22
78859;BMP280;68210;52.032;4.634;2023-05-07T03:28:25;101497.53;;;15.29
78859;BMP280;68210;52.032;4.634;2023-05-07T03:30:25;101499.66;;;15.39
78859;BMP280;68210;52.032;4.634;2023-05-07T03:32:26;101486.69;;;15.33
78859;BMP280;68210;52.032;4.634;2023-05-07T03:34:26;101472.59;;;15.09
78859;BMP280;68210;52.032;4.634;2023-05-07T03:36:26;101489.16;;;15.00
78859;BMP280;68210;52.032;4.634;2023-05-07T03:38:27;101490.53;;;15.10
78859;BMP280;68210;52.032;4.634;2023-05-07T03:40:27;101489.75;;;15.09
78859;BMP280;68210;52.032;4.634;2023-05-07T03:42:28;101486.78;;;15.18
78859;BMP280;68210;52.032;4.634;2023-05-07T03:44:29;101491.09;;;15.19
78859;BMP280;68210;52.032;4.634;2023-05-07T03:46:29;101486.72;;;15.14
78859;BMP280;68210;52.032;4.634;2023-05-07T03:48:30;101489.50;;;15.18
78859;BMP280;68210;52.032;4.634;2023-05-07T03:50:30;101490.53;;;15.10
78859;BMP280;68210;52.032;4.634;2023-05-07T03:52:30;101490.53;;;15.10
78859;BMP280;68210;52.032;4.634;2023-05-07T03:54:31;101494.09;;;15.14
78859;BMP280;68210;52.032;4.634;2023-05-07T03:56:31;101491.31;;;15.10
78859;BMP280;68210;52.032;4.634;2023-05-07T03:58:31;101503.91;;;15.15
78859;BMP280;68210;52.032;4.634;2023-05-07T04:00:32;101491.59;;;15.05
78859;BMP280;68210;52.032;4.634;2023-05-07T04:02:37;101495.31;;;15.16
78859;BMP280;68210;52.032;4.634;2023-05-07T04:04:37;101504.88;;;15.25
78859;BMP280;68210;52.032;4.634;2023-05-07T04:06:37;101503.84;;;15.33
78859;BMP280;68210;52.032;4.634;2023-05-07T04:08:38;101503.84;;;15.11
78859;BMP280;68210;52.032;4.634;2023-05-07T04:10:38;101498.00;;;15.13
78859;BMP280;68210;52.032;4.634;2023-05-07T04:12:38;101506.56;;;15.11
78859;BMP280;68210;52.032;4.634;2023-05-07T04:14:39;101506.16;;;15.31
78859;BMP280;68210;52.032;4.634;2023-05-07T04:16:39;101501.91;;;15.12
78859;BMP280;68210;52.032;4.634;2023-05-07T04:18:40;101499.84;;;15.27
78859;BMP280;68210;52.032;4.634;2023-05-07T04:20:40;101499.53;;;15.32
78859;BMP280;68210;52.032;4.634;2023-05-07T04:22:41;101502.00;;;15.19
78859;BMP280;68210;52.032;4.634;2023-05-07T04:24:41;101514.22;;;15.24
78859;BMP280;68210;52.032;4.634;2023-05-07T04:26:41;101508.63;;;15.18
78859;BMP280;68210;52.032;4.634;2023-05-07T04:28:42;101501.72;;;15.23
78859;BMP280;68210;52.032;4.634;2023-05-07T04:30:42;101504.63;;;15.34
78859;BMP280;68210;52.032;4.634;2023-05-07T04:32:42;101505.53;;;15.19
78859;BMP280;68210;52.032;4.634;2023-05-07T04:34:44;101502.25;;;15.32
78859;BMP280;68210;52.032;4.634;2023-05-07T04:36:45;101503.13;;;15.36
78859;BMP280;68210;52.032;4.634;2023-05-07T04:38:46;101506.63;;;15.15
78859;BMP280;68210;52.032;4.634;2023-05-07T04:40:46;101496.00;;;14.91
78859;BMP280;68210;52.032;4.634;2023-05-07T04:42:47;101504.63;;;15.12
78859;BMP280;68210;52.032;4.634;2023-05-07T04:44:47;101505.69;;;15.07
78859;BMP280;68210;52.032;4.634;2023-05-07T04:46:47;101501.81;;;15.08
78859;BMP280;68210;52.032;4.634;2023-05-07T04:48:48;101507.28;;;15.08
78859;BMP280;68210;52.032;4.634;2023-05-07T04:50:51;101505.63;;;15.04
78859;BMP280;68210;52.032;4.634;2023-05-07T04:52:52;101509.19;;;15.08
78859;BMP280;68210;52.032;4.634;2023-05-07T04:54:52;101506.69;;;15.18
78859;BMP280;68210;52.032;4.634;2023-05-07T04:56:53;101506.00;;;15.24
78859;BMP280;68210;52.032;4.634;2023-05-07T04:58:53;101507.41;;;15.15
78859;BMP280;68210;52.032;4.634;2023-05-07T05:00:53;101500.53;;;15.24
78859;BMP280;68210;52.032;4.634;2023-05-07T05:02:54;101506.34;;;15.42
78859;BMP280;68210;52.032;4.634;2023-05-07T05:04:54;101502.28;;;15.54
78859;BMP280;68210;52.032;4.634;2023-05-07T05:06:55;101509.84;;;15.64
78859;BMP280;68210;52.032;4.634;2023-05-07T05:08:55;101514.53;;;15.42
78859;BMP280;68210;52.032;4.634;2023-05-07T05:10:55;101518.28;;;15.56
78859;BMP280;68210;52.032;4.634;2023-05-07T05:12:56;101517.63;;;15.62
78859;BMP280;68210;52.032;4.634;2023-05-07T05:14:56;101521.31;;;15.51
78859;BMP280;68210;52.032;4.634;2023-05-07T05:16:56;101516.59;;;15.48
78859;BMP280;68210;52.032;4.634;2023-05-07T05:18:57;101526.91;;;15.58
78859;BMP280;68210;52.032;4.634;2023-05-07T05:20:57;101521.81;;;15.56
78859;BMP280;68210;52.032;4.634;2023-05-07T05:22:57;101528.50;;;15.59
78859;BMP280;68210;52.032;4.634;2023-05-07T05:24:58;101532.53;;;15.65
78859;BMP280;68210;52.032;4.634;2023-05-07T05:26:58;101525.53;;;15.45
78859;BMP280;68210;52.032;4.634;2023-05-07T05:29:01;101528.84;;;15.35
78859;BMP280;68210;52.032;4.634;2023-05-07T05:31:01;101528.97;;;15.42
78859;BMP280;68210;52.032;4.634;2023-05-07T05:33:01;101527.88;;;15.69
78859;BMP280;68210;52.032;4.634;2023-05-07T05:35:02;101531.84;;;15.49
78859;BMP280;68210;52.032;4.634;2023-05-07T05:37:02;101535.41;;;15.53
78859;BMP280;68210;52.032;4.634;2023-05-07T05:39:03;101533.31;;;15.65
78859;BMP280;68210;52.032;4.634;2023-05-07T05:41:03;101537.25;;;15.68
78859;BMP280;68210;52.032;4.634;2023-05-07T05:43:04;101537.84;;;15.58
78859;BMP280;68210;52.032;4.634;2023-05-07T05:45:05;101537.13;;;15.61
78859;BMP280;68210;52.032;4.634;2023-05-07T05:47:05;101545.13;;;15.73
78859;BMP280;68210;52.032;4.634;2023-05-07T05:49:05;101549.63;;;15.62
78859;BMP280;68210;52.032;4.634;2023-05-07T05:51:07;101549.75;;;15.69
78859;BMP280;68210;52.032;4.634;2023-05-07T05:53:07;101549.81;;;15.72
78859;BMP280;68210;52.032;4.634;2023-05-07T05:55:08;101549.16;;;15.79
78859;BMP280;68210;52.032;4.634;2023-05-07T05:57:08;101551.94;;;15.60
78859;BMP280;68210;52.032;4.634;2023-05-07T05:59:09;101552.00;;;15.63
78859;BMP280;68210;52.032;4.634;2023-05-07T06:01:10;101556.84;;;15.51
78859;BMP280;68210;52.032;4.634;2023-05-07T06:03:12;101560.06;;;15.34
78859;BMP280;68210;52.032;4.634;2023-05-07T06:05:12;101549.34;;;15.45
78859;BMP280;68210;52.032;4.634;2023-05-07T06:07:12;101560.44;;;15.33
78859;BMP280;68210;52.032;4.634;2023-05-07T06:09:13;101561.78;;;15.42
78859;BMP280;68210;52.032;4.634;2023-05-07T06:11:13;101564.88;;;15.41
78859;BMP280;68210;52.032;4.634;2023-05-07T06:13:13;101554.94;;;15.51
78859;BMP280;68210;52.032;4.634;2023-05-07T06:15:14;101565.50;;;15.53
78859;BMP280;68210;52.032;4.634;2023-05-07T06:17:14;101570.41;;;15.44
78859;BMP280;68210;52.032;4.634;2023-05-07T06:19:14;101564.31;;;15.54
78859;BMP280;68210;52.032;4.634;2023-05-07T06:21:18;101569.72;;;15.50
78859;BMP280;68210;52.032;4.634;2023-05-07T06:23:19;101566.72;;;15.55
78859;BMP280;68210;52.032;4.634;2023-05-07T06:25:20;101576.19;;;15.61
78859;BMP280;68210;52.032;4.634;2023-05-07T06:27:20;101575.34;;;15.57
78859;BMP280;68210;52.032;4.634;2023-05-07T06:29:20;101589.09;;;15.42
78859;BMP280;68210;52.032;4.634;2023-05-07T06:31:21;101577.38;;;15.42
78859;BMP280;68210;52.032;4.634;2023-05-07T06:33:21;101572.91;;;15.52
78859;BMP280;68210;52.032;4.634;2023-05-07T06:35:22;101568.81;;;15.43
78859;BMP280;68210;52.032;4.634;2023-05-07T06:37:22;101578.19;;;15.42
78859;BMP280;68210;52.032;4.634;2023-05-07T06:39:22;101565.72;;;15.45
78859;BMP280;68210;52.032;4.634;2023-05-07T06:41:23;101574.97;;;15.59
78859;BMP280;68210;52.032;4.634;2023-05-07T06:43:23;101567.50;;;15.56
78859;BMP280;68210;52.032;4.634;2023-05-07T06:45:23;101562.66;;;15.46
78859;BMP280;68210;52.032;4.634;2023-05-07T06:47:25;101565.63;;;15.60
78859;BMP280;68210;52.032;4.634;2023-05-07T06:49:25;101565.41;;;15.72
78859;BMP280;68210;52.032;4.634;2023-05-07T06:51:25;101563.84;;;15.71
78859;BMP280;68210;52.032;4.634;2023-05-07T06:53:27;101570.06;;;15.68
78859;BMP280;68210;52.032;4.634;2023-05-07T06:55:28;101567.78;;;15.51
78859;BMP280;68210;52.032;4.634;2023-05-07T06:57:28;101564.47;;;15.61
78859;BMP280;68210;52.032;4.634;2023-05-07T06:59:29;101563.84;;;15.49
78859;BMP280;68210;52.032;4.634;2023-05-07T07:01:29;101570.22;;;15.78
78859;BMP280;68210;52.032;4.634;2023-05-07T07:03:29;101574.59;;;15.82
78859;BMP280;68210;52.032;4.634;2023-05-07T07:05:30;101574.66;;;15.64
78859;BMP280;68210;52.032;4.634;2023-05-07T07:07:30;101573.38;;;15.80
78859;BMP280;68210;52.032;4.634;2023-05-07T07:09:31;101573.81;;;15.82
78859;BMP280;68210;52.032;4.634;2023-05-07T07:11:32;101573.31;;;15.77
78859;BMP280;68210;52.032;4.634;2023-05-07T07:13:33;101562.88;;;16.08
78859;BMP280;68210;52.032;4.634;2023-05-07T07:15:33;101564.09;;;16.10
78859;BMP280;68210;52.032;4.634;2023-05-07T07:17:33;101573.06;;;15.85
78859;BMP280;68210;52.032;4.634;2023-05-07T07:19:34;101569.84;;;15.80
78859;BMP280;68210;52.032;4.634;2023-05-07T07:21:34;101568.16;;;15.72
78859;BMP280;68210;52.032;4.634;2023-05-07T07:23:35;101571.13;;;15.85
78859;BMP280;68210;52.032;4.634;2023-05-07T07:25:35;101567.34;;;15.93
78859;BMP280;68210;52.032;4.634;2023-05-07T07:27:36;101570.88;;;15.94
78859;BMP280;68210;52.032;4.634;2023-05-07T07:29:36;101577.47;;;15.89
78859;BMP280;68210;52.032;4.634;2023-05-07T07:31:37;101575.31;;;16.24
78859;BMP280;68210;52.032;4.634;2023-05-07T07:33:37;101577.31;;;16.27
78859;BMP280;68210;52.032;4.634;2023-05-07T07:35:37;101578.13;;;16.56
78859;BMP280;68210;52.032;4.634;2023-05-07T07:37:38;101577.69;;;16.29
78859;BMP280;68210;52.032;4.634;2023-05-07T07:39:38;101573.72;;;16.48
78859;BMP280;68210;52.032;4.634;2023-05-07T07:41:38;101571.03;;;16.55
78859;BMP280;68210;52.032;4.634;2023-05-07T07:43:39;101574.56;;;16.56
78859;BMP280;68210;52.032;4.634;2023-05-07T07:45:39;101574.75;;;16.41
78859;BMP280;68210;52.032;4.634;2023-05-07T07:47:40;101574.84;;;16.47
78859;BMP280;68210;52.032;4.634;2023-05-07T07:49:40;101563.44;;;17.03
78859;BMP280;68210;52.032;4.634;2023-05-07T07:51:40;101565.13;;;17.11
78859;BMP280;68210;52.032;4.634;2023-05-07T07:53:41;101565.50;;;17.46
78859;BMP280;68210;52.032;4.634;2023-05-07T07:55:41;101553.34;;;17.86
78859;BMP280;68210;52.032;4.634;2023-05-07T07:57:42;101552.16;;;18.37
78859;BMP280;68210;52.032;4.634;2023-05-07T07:59:42;101552.47;;;18.92
78859;BMP280;68210;52.032;4.634;2023-05-07T08:01:43;101545.44;;;19.01
78859;BMP280;68210;52.032;4.634;2023-05-07T08:03:43;101547.13;;;19.64
78859;BMP280;68210;52.032;4.634;2023-05-07T08:05:44;101554.53;;;19.40
78859;BMP280;68210;52.032;4.634;2023-05-07T08:07:44;101554.63;;;19.95
78859;BMP280;68210;52.032;4.634;2023-05-07T08:09:46;101555.78;;;20.04
78859;BMP280;68210;52.032;4.634;2023-05-07T08:11:47;101551.34;;;19.10
78859;BMP280;68210;52.032;4.634;2023-05-07T08:13:47;101560.53;;;19.83
78859;BMP280;68210;52.032;4.634;2023-05-07T08:15:47;101562.09;;;19.98
78859;BMP280;68210;52.032;4.634;2023-05-07T08:17:48;101556.56;;;19.60
78859;BMP280;68210;52.032;4.634;2023-05-07T08:19:48;101565.97;;;19.35
78859;BMP280;68210;52.032;4.634;2023-05-07T08:21:49;101565.16;;;19.38
78859;BMP280;68210;52.032;4.634;2023-05-07T08:23:49;101568.34;;;19.60
78859;BMP280;68210;52.032;4.634;2023-05-07T08:25:50;101564.28;;;19.03
78859;BMP280;68210;52.032;4.634;2023-05-07T08:27:51;101576.00;;;18.89
78859;BMP280;68210;52.032;4.634;2023-05-07T08:29:51;101581.38;;;18.65
78859;BMP280;68210;52.032;4.634;2023-05-07T08:31:52;101567.41;;;18.98
78859;BMP280;68210;52.032;4.634;2023-05-07T08:33:52;101576.88;;;19.21
78859;BMP280;68210;52.032;4.634;2023-05-07T08:35:53;101573.72;;;19.05
78859;BMP280;68210;52.032;4.634;2023-05-07T08:37:53;101578.41;;;19.01
78859;BMP280;68210;52.032;4.634;2023-05-07T08:39:53;101580.75;;;18.92
78859;BMP280;68210;52.032;4.634;2023-05-07T08:42:13;101592.44;;;18.83
78859;BMP280;68210;52.032;4.634;2023-05-07T08:44:16;101578.75;;;18.89
78859;BMP280;68210;52.032;4.634;2023-05-07T08:46:19;101583.03;;;18.87
78859;BMP280;68210;52.032;4.634;2023-05-07T08:48:22;101585.44;;;18.92
78859;BMP280;68210;52.032;4.634;2023-05-07T08:50:26;101583.81;;;18.87
78859;BMP280;68210;52.032;4.634;2023-05-07T08:52:26;101585.38;;;18.85
78859;BMP280;68210;52.032;4.634;2023-05-07T08:54:27;101571.41;;;19.14
78859;BMP280;68210;52.032;4.634;2023-05-07T08:56:29;101585.59;;;19.30
78859;BMP280;68210;52.032;4.634;2023-05-07T08:58:30;101584.94;;;18.76
78859;BMP280;68210;52.032;4.634;2023-05-07T09:00:30;101590.75;;;18.64
78859;BMP280;68210;52.032;4.634;2023-05-07T09:02:30;101590.09;;;18.88
78859;BMP280;68210;52.032;4.634;2023-05-07T09:04:31;101589.41;;;19.01
78859;BMP280;68210;52.032;4.634;2023-05-07T09:06:32;101594.13;;;19.04
78859;BMP280;68210;52.032;4.634;2023-05-07T09:08:33;101594.16;;;19.11
78859;BMP280;68210;52.032;4.634;2023-05-07T09:10:34;101591.09;;;19.30
78859;BMP280;68210;52.032;4.634;2023-05-07T09:12:34;101590.00;;;18.67
78859;BMP280;68210;52.032;4.634;2023-05-07T09:14:36;101601.25;;;19.19
78859;BMP280;68210;52.032;4.634;2023-05-07T09:16:36;101607.50;;;19.06
78859;BMP280;68210;52.032;4.634;2023-05-07T09:18:41;101593.97;;;18.77
78859;BMP280;68210;52.032;4.634;2023-05-07T09:20:41;101593.25;;;18.87
78859;BMP280;68210;52.032;4.634;2023-05-07T09:22:42;101593.06;;;19.40
78859;BMP280;68210;52.032;4.634;2023-05-07T09:24:48;101594.66;;;19.41
78859;BMP280;68210;52.032;4.634;2023-05-07T09:26:48;101589.94;;;19.58
78859;BMP280;68210;52.032;4.634;2023-05-07T09:28:48;101592.31;;;19.46
78859;BMP280;68210;52.032;4.634;2023-05-07T09:30:51;101593.47;;;19.38
78859;BMP280;68210;52.032;4.634;2023-05-07T09:32:52;101591.53;;;19.49
78859;BMP280;68210;52.032;4.634;2023-05-07T09:34:53;101592.97;;;19.12
78859;BMP280;68210;52.032;4.634;2023-05-07T09:36:54;101592.22;;;19.18
78859;BMP280;68210;52.032;4.634;2023-05-07T09:38:54;101597.81;;;19.43
78859;BMP280;68210;52.032;4.634;2023-05-07T09:41:25;101595.09;;;19.74
78859;BMP280;68210;52.032;4.634;2023-05-07T09:43:26;101593.56;;;19.90
78859;BMP280;68210;52.032;4.634;2023-05-07T09:45:27;101598.63;;;19.74
78859;BMP280;68210;52.032;4.634;2023-05-07T09:47:31;101606.09;;;19.70
78859;BMP280;68210;52.032;4.634;2023-05-07T09:49:36;101596.63;;;19.57
78859;BMP280;68210;52.032;4.634;2023-05-07T09:51:41;101597.88;;;19.77
78859;BMP280;68210;52.032;4.634;2023-05-07T09:53:43;101610.00;;;19.66
78859;BMP280;68210;52.032;4.634;2023-05-07T09:55:46;101607.91;;;19.18
78859;BMP280;68210;52.032;4.634;2023-05-07T09:57:50;101603.59;;;19.17
78859;BMP280;68210;52.032;4.634;2023-05-07T09:59:51;101599.34;;;19.33
78859;BMP280;68210;52.032;4.634;2023-05-07T10:01:53;101596.59;;;19.50
78859;BMP280;68210;52.032;4.634;2023-05-07T10:03:57;101609.06;;;19.00
78859;BMP280;68210;52.032;4.634;2023-05-07T10:05:58;101612.31;;;19.33
78859;BMP280;68210;52.032;4.634;2023-05-07T10:07:59;101607.22;;;19.55
78859;BMP280;68210;52.032;4.634;2023-05-07T10:10:01;101606.88;;;19.74
78859;BMP280;68210;52.032;4.634;2023-05-07T10:12:01;101611.56;;;19.53
78859;BMP280;68210;52.032;4.634;2023-05-07T10:14:03;101604.34;;;19.04
78859;BMP280;68210;52.032;4.634;2023-05-07T10:16:06;101606.47;;;19.62
78859;BMP280;68210;52.032;4.634;2023-05-07T10:18:08;101598.25;;;20.07
78859;BMP280;68210;52.032;4.634;2023-05-07T10:20:09;101603.75;;;19.82
78859;BMP280;68210;52.032;4.634;2023-05-07T10:22:09;101610.84;;;20.42
78859;BMP280;68210;52.032;4.634;2023-05-07T10:24:20;101601.38;;;20.46
78859;BMP280;68210;52.032;4.634;2023-05-07T10:26:24;101595.88;;;20.50
78859;BMP280;68210;52.032;4.634;2023-05-07T10:28:29;101595.47;;;20.69
78859;BMP280;68210;52.032;4.634;2023-05-07T10:32:56;101599.59;;;21.18
78859;BMP280;68210;52.032;4.634;2023-05-07T10:35:10;101600.50;;;20.87
78859;BMP280;68210;52.032;4.634;2023-05-07T10:37:13;101594.81;;;21.29
78859;BMP280;68210;52.032;4.634;2023-05-07T10:39:14;101597.31;;;20.99
78859;BMP280;68210;52.032;4.634;2023-05-07T10:41:15;101605.50;;;21.16
78859;BMP280;68210;52.032;4.634;2023-05-07T10:43:17;101606.44;;;20.82
78859;BMP280;68210;52.032;4.634;2023-05-07T10:45:17;101610.19;;;21.26
78859;BMP280;68210;52.032;4.634;2023-05-07T10:47:18;101611.50;;;20.94
78859;BMP280;68210;52.032;4.634;2023-05-07T10:49:18;101605.25;;;20.76
78859;BMP280;68210;52.032;4.634;2023-05-07T10:51:20;101607.53;;;21.02
78859;BMP280;68210;52.032;4.634;2023-05-07T10:53:22;101615.56;;;20.38
78859;BMP280;68210;52.032;4.634;2023-05-07T10:55:24;101609.16;;;20.89
78859;BMP280;68210;52.032;4.634;2023-05-07T10:59:32;101618.44;;;21.36
78859;BMP280;68210;52.032;4.634;2023-05-07T11:04:15;101613.47;;;21.75
78859;BMP280;68210;52.032;4.634;2023-05-07T11:06:16;101618.34;;;22.11
78859;BMP280;68210;52.032;4.634;2023-05-07T11:08:16;101610.25;;;22.33
78859;BMP280;68210;52.032;4.634;2023-05-07T11:10:16;101613.72;;;21.94
78859;BMP280;68210;52.032;4.634;2023-05-07T11:12:45;101604.66;;;21.93
78859;BMP280;68210;52.032;4.634;2023-05-07T11:14:44;101599.44;;;21.52
78859;BMP280;68210;52.032;4.634;2023-05-07T11:16:45;101605.19;;;21.75
78859;BMP280;68210;52.032;4.634;2023-05-07T11:18:48;101606.94;;;22.02
78859;BMP280;68210;52.032;4.634;2023-05-07T11:22:51;101603.16;;;21.82
78859;BMP280;68210;52.032;4.634;2023-05-07T11:24:53;101598.09;;;21.74
78859;BMP280;68210;52.032;4.634;2023-05-07T11:26:53;101605.84;;;21.93
78859;BMP280;68210;52.032;4.634;2023-05-07T11:28:54;101603.91;;;21.90
78859;BMP280;68210;52.032;4.634;2023-05-07T11:30:56;101600.16;;;21.63
78859;BMP280;68210;52.032;4.634;2023-05-07T11:32:56;101606.25;;;21.24
78859;BMP280;68210;52.032;4.634;2023-05-07T11:34:59;101603.09;;;21.22
78859;BMP280;68210;52.032;4.634;2023-05-07T11:37:00;101599.75;;;21.61